Terminal Aerodrome Forecast
Issued by NWS Glasgow, MT

Home | Current Version | Previous Version | Text Only | Print | Product List | Glossary On
Versions: 1 2 3 4 5 6 7 8 9 10 11
481
FTUS45 KGGW 301724
TAFGGW
TAF
KGGW 301724Z 3018/3118 31007KT P6SM BKN150
     FM310600 04005KT P6SM VCSH BKN090
     FM311200 02009KT P6SM VCSH BKN020
     FM311500 02012KT P6SM VCSH OVC015=

USA.gov is the U.S. government's official web portal to all federal, state and local government web resources and services.